Time;durP1;ratioP1;P1;durP2;ratioP2;P2;SDS_P1;SDS_P2;PMS_P1;PMS_P2;Temp;Humidity;BMP_temperature;BMP_pressure;BME280_temperature;BME280_humidity;BME280_pressure;Samples;Min_cycle;Max_cycle;Signal;HPM_P1;HPM_P2
2022/09/10 00:02:34;;;;;;;18.25;7.40;;;;;;;;;;5092916;28;20047;-76
2022/09/10 00:05:39;;;;;;;27.58;8.40;;;;;;;;;;5091953;28;20411;-75
2022/09/10 00:08:44;;;;;;;24.45;7.60;;;;;;;;;;5092712;28;20048;-75
2022/09/10 00:11:48;;;;;;;23.70;7.00;;;;;;;;;;5092360;28;20049;-75
2022/09/10 00:14:53;;;;;;;19.98;7.07;;;;;;;;;;5092527;28;20032;-76
2022/09/10 00:17:57;;;;;;;18.17;6.70;;;;;;;;;;5092290;28;20190;-76
2022/09/10 00:21:04;;;;;;;16.88;7.43;;;;;;;;;;5092267;28;20047;-76
2022/09/10 00:24:08;;;;;;;30.52;10.05;;;;;;;;;;5091155;28;20063;-76
2022/09/10 00:27:14;;;;;;;27.42;10.50;;;;;;;;;;5091834;28;20063;-75
2022/09/10 00:30:18;;;;;;;30.17;12.40;;;;;;;;;;5092322;28;20039;-75
2022/09/10 00:33:25;;;;;;;28.40;12.95;;;;;;;;;;5091371;28;20093;-75
2022/09/10 00:36:38;;;;;;;27.27;11.13;;;;;;;;;;5091570;28;20043;-76
2022/09/10 00:39:42;;;;;;;28.50;10.40;;;;;;;;;;5091200;28;20419;-77
2022/09/10 00:42:47;;;;;;;25.77;11.07;;;;;;;;;;5092263;28;20045;-76
2022/09/10 00:45:52;;;;;;;23.55;9.55;;;;;;;;;;5090922;28;20051;-75
2022/09/10 00:48:58;;;;;;;28.73;9.82;;;;;;;;;;5091323;28;20212;-76
2022/09/10 00:52:04;;;;;;;25.88;10.10;;;;;;;;;;5090992;28;20040;-75
2022/09/10 00:55:09;;;;;;;24.88;10.23;;;;;;;;;;5090717;28;20039;-74
2022/09/10 00:58:14;;;;;;;21.15;7.82;;;;;;;;;;5091017;28;20379;-75
2022/09/10 01:01:18;;;;;;;17.25;7.45;;;;;;;;;;5079138;28;20040;-75
2022/09/10 01:04:22;;;;;;;22.85;6.95;;;;;;;;;;5091046;28;20028;-74
2022/09/10 01:07:28;;;;;;;21.40;6.32;;;;;;;;;;5091472;28;20063;-75
2022/09/10 01:10:42;;;;;;;17.42;6.75;;;;;;;;;;5091526;28;20040;-75
2022/09/10 01:13:50;;;;;;;21.05;6.85;;;;;;;;;;5090562;28;20041;-75
2022/09/10 01:17:06;;;;;;;16.27;5.57;;;;;;;;;;5090668;28;20040;-75
2022/09/10 01:20:15;;;;;;;18.95;5.78;;;;;;;;;;5090269;28;20499;-76
2022/09/10 01:23:23;;;;;;;19.05;5.70;;;;;;;;;;5089852;28;20044;-76
2022/09/10 01:26:44;;;;;;;19.15;5.55;;;;;;;;;;5090026;28;20048;-75
2022/09/10 01:29:59;;;;;;;14.43;5.50;;;;;;;;;;5090254;28;20485;-76
2022/09/10 01:33:16;;;;;;;25.42;5.78;;;;;;;;;;5090149;28;20044;-76
2022/09/10 01:36:24;;;;;;;20.40;5.82;;;;;;;;;;5090426;28;20538;-76
2022/09/10 01:39:30;;;;;;;18.33;5.30;;;;;;;;;;5090265;28;20036;-75
2022/09/10 01:42:38;;;;;;;20.08;5.35;;;;;;;;;;5078585;28;20043;-75
2022/09/10 01:45:45;;;;;;;20.70;5.85;;;;;;;;;;5090963;28;20044;-74
2022/09/10 01:48:59;;;;;;;25.02;5.63;;;;;;;;;;5094478;28;20040;-75
2022/09/10 01:52:24;;;;;;;23.50;5.95;;;;;;;;;;5094337;28;20403;-75
2022/09/10 01:55:35;;;;;;;16.23;5.70;;;;;;;;;;5094173;28;20040;-74
2022/09/10 01:58:41;;;;;;;19.48;7.18;;;;;;;;;;5094125;28;20106;-76
2022/09/10 02:02:15;;;;;;;23.85;6.35;;;;;;;;;;5094224;28;20510;-76
2022/09/10 02:05:22;;;;;;;17.55;6.00;;;;;;;;;;5094980;28;20376;-76
2022/09/10 02:08:36;;;;;;;20.92;7.07;;;;;;;;;;5093823;28;20044;-76
2022/09/10 02:11:47;;;;;;;21.38;7.20;;;;;;;;;;5093735;28;20032;-75
2022/09/10 02:15:02;;;;;;;20.25;6.57;;;;;;;;;;5094030;28;20040;-75
2022/09/10 02:18:22;;;;;;;18.13;7.00;;;;;;;;;;5093755;28;20056;-76
2022/09/10 02:21:27;;;;;;;20.98;7.00;;;;;;;;;;5093585;28;20293;-75
2022/09/10 02:24:31;;;;;;;28.80;8.20;;;;;;;;;;5094384;28;20040;-76
2022/09/10 02:27:37;;;;;;;26.90;7.65;;;;;;;;;;5093348;28;20404;-76
2022/09/10 02:30:42;;;;;;;19.33;6.03;;;;;;;;;;5093765;28;20052;-76
2022/09/10 02:33:46;;;;;;;18.80;6.82;;;;;;;;;;5081926;28;20047;-76
2022/09/10 02:36:51;;;;;;;23.83;7.43;;;;;;;;;;5093999;28;20049;-76
2022/09/10 02:39:55;;;;;;;20.85;8.05;;;;;;;;;;5093536;28;20036;-75
2022/09/10 02:43:03;;;;;;;19.48;7.78;;;;;;;;;;5093309;28;20040;-76
2022/09/10 02:46:08;;;;;;;17.52;7.38;;;;;;;;;;5081347;28;20044;-76
2022/09/10 02:49:14;;;;;;;19.15;6.63;;;;;;;;;;5093384;28;20032;-75
2022/09/10 02:52:20;;;;;;;18.25;7.07;;;;;;;;;;5093106;28;20039;-76
2022/09/10 02:55:25;;;;;;;20.38;9.30;;;;;;;;;;5093164;28;20043;-76
2022/09/10 02:58:30;;;;;;;30.27;11.00;;;;;;;;;;5092046;28;20048;-76
2022/09/10 03:01:36;;;;;;;37.42;13.23;;;;;;;;;;5092778;28;20044;-77
2022/09/10 03:04:42;;;;;;;16.33;7.75;;;;;;;;;;5092630;28;20043;-76
2022/09/10 03:07:46;;;;;;;25.05;8.75;;;;;;;;;;5093891;28;20044;-76
2022/09/10 03:10:51;;;;;;;34.75;13.27;;;;;;;;;;5092561;28;20040;-76
2022/09/10 03:13:55;;;;;;;23.15;8.05;;;;;;;;;;5092620;28;20495;-77
2022/09/10 03:17:02;;;;;;;22.33;8.95;;;;;;;;;;5093559;28;20039;-76
2022/09/10 03:20:07;;;;;;;36.35;9.90;;;;;;;;;;5092751;28;20044;-77
2022/09/10 03:23:12;;;;;;;25.85;9.05;;;;;;;;;;5092619;28;20501;-76
2022/09/10 03:26:20;;;;;;;22.45;9.60;;;;;;;;;;5092111;28;20049;-76
2022/09/10 03:29:25;;;;;;;21.05;8.00;;;;;;;;;;5092545;28;20048;-75
2022/09/10 03:32:31;;;;;;;20.35;8.35;;;;;;;;;;5092523;28;20028;-75
2022/09/10 03:35:35;;;;;;;19.75;7.97;;;;;;;;;;5080890;28;20511;-75
2022/09/10 03:38:41;;;;;;;24.90;8.02;;;;;;;;;;5093079;28;20036;-75
2022/09/10 03:41:46;;;;;;;20.08;6.93;;;;;;;;;;5092308;28;20249;-76
2022/09/10 03:44:52;;;;;;;22.50;6.78;;;;;;;;;;5092188;28;20040;-75
2022/09/10 03:47:56;;;;;;;18.60;7.30;;;;;;;;;;5092024;28;20516;-75
2022/09/10 03:51:03;;;;;;;18.55;7.22;;;;;;;;;;5092275;28;20040;-75
2022/09/10 03:54:08;;;;;;;17.83;7.90;;;;;;;;;;5092907;28;20039;-75
2022/09/10 03:57:12;;;;;;;20.85;8.52;;;;;;;;;;5091988;28;20373;-75
2022/09/10 04:00:18;;;;;;;19.08;8.38;;;;;;;;;;5091869;28;20028;-76
2022/09/10 04:03:26;;;;;;;23.40;9.38;;;;;;;;;;5092281;28;20036;-74
2022/09/10 04:06:32;;;;;;;25.65;8.18;;;;;;;;;;5091602;28;20058;-76
2022/09/10 04:09:36;;;;;;;29.98;9.57;;;;;;;;;;5091646;28;20432;-76
2022/09/10 04:12:40;;;;;;;22.05;8.68;;;;;;;;;;5091474;28;20056;-75
2022/09/10 04:15:45;;;;;;;25.90;8.20;;;;;;;;;;5079953;28;20032;-77
2022/09/10 04:18:50;;;;;;;20.63;8.57;;;;;;;;;;5091386;28;20058;-75
2022/09/10 04:21:56;;;;;;;24.98;8.15;;;;;;;;;;5091446;28;20357;-76
2022/09/10 04:25:01;;;;;;;21.17;7.95;;;;;;;;;;5079676;28;20047;-76
2022/09/10 04:28:06;;;;;;;18.90;8.05;;;;;;;;;;5090966;28;20138;-77
2022/09/10 04:31:11;;;;;;;29.17;8.82;;;;;;;;;;5091393;28;20044;-77
2022/09/10 04:34:16;;;;;;;21.80;9.25;;;;;;;;;;5090869;28;20032;-77
2022/09/10 04:37:20;;;;;;;20.02;7.82;;;;;;;;;;5091027;28;20182;-76
2022/09/10 04:40:26;;;;;;;19.23;8.02;;;;;;;;;;5090962;28;20110;-76
2022/09/10 04:43:31;;;;;;;18.10;7.95;;;;;;;;;;5079301;28;20063;-75
2022/09/10 04:46:37;;;;;;;20.55;8.13;;;;;;;;;;5079586;28;20221;-76
2022/09/10 04:49:45;;;;;;;20.23;8.48;;;;;;;;;;5079193;28;20335;-76
2022/09/10 04:52:50;;;;;;;17.10;7.63;;;;;;;;;;5090872;28;20042;-75
2022/09/10 04:55:55;;;;;;;14.35;8.10;;;;;;;;;;5091115;28;20391;-76
2022/09/10 04:59:00;;;;;;;20.85;7.70;;;;;;;;;;5090945;28;20056;-77
2022/09/10 05:02:07;;;;;;;18.35;7.05;;;;;;;;;;5090742;28;20400;-76
2022/09/10 05:05:12;;;;;;;20.17;7.50;;;;;;;;;;5079103;28;20040;-77
2022/09/10 05:08:17;;;;;;;16.60;7.57;;;;;;;;;;5090837;28;20102;-76
2022/09/10 05:11:28;;;;;;;19.92;7.07;;;;;;;;;;5090865;28;20395;-77
2022/09/10 05:14:32;;;;;;;19.10;7.57;;;;;;;;;;5090499;28;20040;-74
2022/09/10 05:17:38;;;;;;;16.17;7.00;;;;;;;;;;5090286;28;20399;-75
2022/09/10 05:20:46;;;;;;;21.02;6.55;;;;;;;;;;5089844;28;20407;-75
2022/09/10 05:23:51;;;;;;;18.60;6.60;;;;;;;;;;5091255;28;20051;-76
2022/09/10 05:26:55;;;;;;;15.95;5.55;;;;;;;;;;5090650;28;20544;-76
2022/09/10 05:30:01;;;;;;;17.08;6.05;;;;;;;;;;5078621;28;20036;-75
2022/09/10 05:33:08;;;;;;;11.45;5.80;;;;;;;;;;5090195;28;20401;-75
2022/09/10 05:36:13;;;;;;;18.60;5.90;;;;;;;;;;5078896;28;20036;-75
2022/09/10 05:39:19;;;;;;;18.80;5.50;;;;;;;;;;5078996;28;20044;-75
2022/09/10 05:42:24;;;;;;;16.83;4.93;;;;;;;;;;5089803;28;20492;-75
2022/09/10 05:45:29;;;;;;;10.82;5.05;;;;;;;;;;5090014;28;20377;-76
2022/09/10 05:48:34;;;;;;;17.88;4.75;;;;;;;;;;5078721;28;20042;-76
2022/09/10 05:51:39;;;;;;;13.13;4.30;;;;;;;;;;5089894;28;20045;-79
2022/09/10 05:54:45;;;;;;;16.05;4.65;;;;;;;;;;5089917;28;20191;-79
2022/09/10 05:57:49;;;;;;;16.08;4.95;;;;;;;;;;5090054;28;20032;-78
2022/09/10 06:00:59;;;;;;;17.05;5.30;;;;;;;;;;5090102;28;20036;-79
2022/09/10 06:04:03;;;;;;;12.98;4.97;;;;;;;;;;5090895;28;20032;-81
2022/09/10 06:07:08;;;;;;;18.40;5.35;;;;;;;;;;5090021;28;20377;-83
2022/09/10 06:10:13;;;;;;;14.10;5.18;;;;;;;;;;5089582;28;20440;-83
2022/09/10 06:13:19;;;;;;;13.88;4.45;;;;;;;;;;5090412;28;20435;-81
2022/09/10 06:16:24;;;;;;;16.88;4.82;;;;;;;;;;5089743;28;20041;-80
2022/09/10 06:19:29;;;;;;;24.30;4.80;;;;;;;;;;5090986;28;20043;-81
2022/09/10 06:22:34;;;;;;;15.45;4.68;;;;;;;;;;5089813;28;20032;-79
2022/09/10 06:25:43;;;;;;;15.68;4.50;;;;;;;;;;5089823;28;20405;-83
2022/09/10 06:28:48;;;;;;;17.45;4.72;;;;;;;;;;5090744;28;20044;-76
2022/09/10 06:31:53;;;;;;;20.33;4.90;;;;;;;;;;5078387;28;20376;-84
2022/09/10 06:34:57;;;;;;;10.40;3.95;;;;;;;;;;5094201;28;20063;-81
2022/09/10 06:38:01;;;;;;;17.48;5.00;;;;;;;;;;5094558;28;20039;-75
2022/09/10 06:41:06;;;;;;;24.13;5.25;;;;;;;;;;5094514;28;20048;-81
2022/09/10 06:44:21;;;;;;;17.63;4.85;;;;;;;;;;5093636;28;20044;-78
2022/09/10 06:47:36;;;;;;;14.82;5.15;;;;;;;;;;5093844;28;20495;-78
2022/09/10 06:50:49;;;;;;;20.27;4.88;;;;;;;;;;5093624;28;20241;-75
2022/09/10 06:53:54;;;;;;;13.25;4.60;;;;;;;;;;5093585;28;20045;-77
2022/09/10 06:57:00;;;;;;;12.15;4.63;;;;;;;;;;5093785;28;20032;-78
2022/09/10 07:00:05;;;;;;;13.77;5.18;;;;;;;;;;5094418;28;20039;-77
2022/09/10 07:03:10;;;;;;;15.13;5.00;;;;;;;;;;5093316;28;20480;-77
2022/09/10 07:06:16;;;;;;;14.10;4.70;;;;;;;;;;5094061;28;20426;-74
2022/09/10 07:09:22;;;;;;;17.95;4.30;;;;;;;;;;5093915;28;20044;-83
2022/09/10 07:12:32;;;;;;;16.92;5.22;;;;;;;;;;5093181;28;20455;-82
2022/09/10 07:15:44;;;;;;;18.58;5.10;;;;;;;;;;5093363;28;20040;-82
2022/09/10 07:18:50;;;;;;;20.50;6.28;;;;;;;;;;5092815;28;20032;-73
2022/09/10 07:21:56;;;;;;;14.85;5.45;;;;;;;;;;5091263;28;20040;-74
2022/09/10 07:25:01;;;;;;;23.05;5.15;;;;;;;;;;5091657;28;20036;-75
2022/09/10 07:28:12;;;;;;;18.90;4.05;;;;;;;;;;5092409;28;20052;-76
2022/09/10 07:31:18;;;;;;;14.98;4.57;;;;;;;;;;5092690;28;20028;-77
2022/09/10 07:34:24;;;;;;;13.85;3.67;;;;;;;;;;5092387;28;20032;-79
2022/09/10 07:37:30;;;;;;;15.82;4.50;;;;;;;;;;5092274;28;20035;-77
2022/09/10 07:40:38;;;;;;;9.70;3.60;;;;;;;;;;5094497;28;20036;-86
2022/09/10 07:43:44;;;;;;;12.05;3.97;;;;;;;;;;5092913;28;20044;-77
2022/09/10 07:46:49;;;;;;;16.77;4.20;;;;;;;;;;5092150;28;20528;-78
2022/09/10 07:49:55;;;;;;;10.10;3.10;;;;;;;;;;5092354;28;20043;-77
2022/09/10 07:53:01;;;;;;;5.75;2.88;;;;;;;;;;5092064;28;20448;-77
2022/09/10 07:56:07;;;;;;;9.02;2.85;;;;;;;;;;5092235;28;20385;-77
2022/09/10 07:59:14;;;;;;;8.77;2.70;;;;;;;;;;5091894;28;20036;-78
2022/09/10 08:02:24;;;;;;;11.90;3.70;;;;;;;;;;5091925;28;20369;-78
2022/09/10 08:05:36;;;;;;;5.85;2.60;;;;;;;;;;5091874;28;20040;-77
2022/09/10 08:08:41;;;;;;;13.00;2.92;;;;;;;;;;5091437;28;20040;-76
2022/09/10 08:11:49;;;;;;;10.63;2.50;;;;;;;;;;5091827;28;20036;-77
2022/09/10 08:14:57;;;;;;;8.52;2.63;;;;;;;;;;5091820;28;20044;-77
2022/09/10 08:18:02;;;;;;;11.77;2.55;;;;;;;;;;5091716;28;20040;-77
2022/09/10 08:21:07;;;;;;;8.57;2.70;;;;;;;;;;5091576;28;20048;-77
2022/09/10 08:24:12;;;;;;;8.40;2.35;;;;;;;;;;5091469;28;20520;-77
2022/09/10 08:27:20;;;;;;;5.38;2.00;;;;;;;;;;5091107;28;20044;-77
2022/09/10 08:30:25;;;;;;;7.82;2.40;;;;;;;;;;5091399;28;20040;-77
2022/09/10 08:33:31;;;;;;;8.32;2.20;;;;;;;;;;5091259;28;20043;-77
2022/09/10 08:36:35;;;;;;;5.20;1.98;;;;;;;;;;5090979;28;20036;-78
2022/09/10 08:39:40;;;;;;;8.27;2.08;;;;;;;;;;5091098;28;20385;-78
2022/09/10 08:42:49;;;;;;;6.78;2.13;;;;;;;;;;5090887;28;20040;-77
2022/09/10 08:45:56;;;;;;;6.45;1.85;;;;;;;;;;5090827;28;20040;-78
2022/09/10 08:49:07;;;;;;;6.10;2.10;;;;;;;;;;5091862;28;20475;-78
2022/09/10 08:52:29;;;;;;;5.75;1.80;;;;;;;;;;5090952;28;20040;-76
2022/09/10 08:55:38;;;;;;;6.68;1.80;;;;;;;;;;5090509;28;20040;-77
2022/09/10 08:58:48;;;;;;;5.07;1.75;;;;;;;;;;5090869;28;20036;-77
2022/09/10 09:02:13;;;;;;;3.47;1.80;;;;;;;;;;5090859;28;20361;-79
2022/09/10 09:05:17;;;;;;;4.13;1.90;;;;;;;;;;5085448;28;20475;-79
2022/09/10 09:08:30;;;;;;;5.32;1.75;;;;;;;;;;5079254;28;20036;-78
2022/09/10 09:11:59;;;;;;;5.20;1.70;;;;;;;;;;5090764;28;20057;-80
2022/09/10 09:15:06;;;;;;;3.58;1.50;;;;;;;;;;5090527;28;20048;-79
2022/09/10 09:18:22;;;;;;;7.65;1.60;;;;;;;;;;5091110;28;20044;-83
2022/09/10 09:21:46;;;;;;;7.60;1.75;;;;;;;;;;5092562;28;20040;-85
2022/09/10 09:24:51;;;;;;;6.35;1.80;;;;;;;;;;5091644;28;20040;-82
2022/09/10 09:27:57;;;;;;;8.48;2.28;;;;;;;;;;5090736;28;20051;-78
2022/09/10 09:31:27;;;;;;;5.63;2.10;;;;;;;;;;5089527;28;20032;-79
2022/09/10 09:34:49;;;;;;;5.55;1.55;;;;;;;;;;5090729;28;20044;-80
2022/09/10 09:38:04;;;;;;;4.13;1.67;;;;;;;;;;5088429;28;20032;-79
2022/09/10 09:41:29;;;;;;;6.28;2.08;;;;;;;;;;5090046;28;20044;-78
2022/09/10 09:44:49;;;;;;;8.10;2.40;;;;;;;;;;5089968;28;20380;-79
2022/09/10 09:47:54;;;;;;;4.50;1.65;;;;;;;;;;5090570;28;20040;-79
2022/09/10 09:50:59;;;;;;;6.18;1.85;;;;;;;;;;5090103;28;20040;-78
2022/09/10 09:54:08;;;;;;;5.07;1.70;;;;;;;;;;5091028;28;20043;-79
2022/09/10 09:57:18;;;;;;;5.32;1.60;;;;;;;;;;5091105;28;20032;-79
2022/09/10 10:00:35;;;;;;;8.80;2.90;;;;;;;;;;5090933;28;20476;-79
2022/09/10 10:03:47;;;;;;;8.90;2.10;;;;;;;;;;5091522;28;20047;-80
2022/09/10 10:06:59;;;;;;;3.97;1.50;;;;;;;;;;5091148;28;20048;-80
2022/09/10 10:10:06;;;;;;;7.05;1.95;;;;;;;;;;5095104;28;20040;-80
2022/09/10 10:13:20;;;;;;;7.47;2.20;;;;;;;;;;5094643;28;20123;-78
2022/09/10 10:16:34;;;;;;;16.58;2.83;;;;;;;;;;5095098;28;20036;-80
2022/09/10 10:19:39;;;;;;;4.53;1.80;;;;;;;;;;5094698;28;20043;-81
2022/09/10 10:22:45;;;;;;;10.55;2.10;;;;;;;;;;5094675;28;20408;-79
2022/09/10 10:25:51;;;;;;;7.60;2.13;;;;;;;;;;5094460;28;20036;-78
2022/09/10 10:28:57;;;;;;;9.07;3.55;;;;;;;;;;5094610;28;20135;-78
2022/09/10 10:32:01;;;;;;;7.03;2.00;;;;;;;;;;5094684;28;20040;-78
2022/09/10 10:35:18;;;;;;;8.70;2.08;;;;;;;;;;5094766;28;20373;-78
2022/09/10 10:38:25;;;;;;;9.00;2.13;;;;;;;;;;5096017;28;20048;-81
2022/09/10 10:41:33;;;;;;;11.07;2.47;;;;;;;;;;5094352;28;20480;-79
2022/09/10 10:44:47;;;;;;;17.45;3.70;;;;;;;;;;5094467;28;20043;-79
2022/09/10 10:48:04;;;;;;;7.38;2.20;;;;;;;;;;5094514;28;20047;-80
2022/09/10 10:51:34;;;;;;;10.02;2.25;;;;;;;;;;5094285;28;20043;-80
2022/09/10 10:54:41;;;;;;;7.45;2.00;;;;;;;;;;5094072;28;20055;-79
2022/09/10 10:57:48;;;;;;;6.80;2.10;;;;;;;;;;5094156;28;20040;-79
2022/09/10 11:01:04;;;;;;;16.70;5.57;;;;;;;;;;5093193;28;20036;-79
2022/09/10 11:04:17;;;;;;;7.30;2.20;;;;;;;;;;5094171;28;20063;-80
2022/09/10 11:07:26;;;;;;;7.68;1.80;;;;;;;;;;5081253;28;20389;-79
2022/09/10 11:10:39;;;;;;;4.70;1.77;;;;;;;;;;5093711;28;20380;-79
2022/09/10 11:13:42;;;;;;;10.50;2.63;;;;;;;;;;5093918;28;20032;-81
2022/09/10 11:16:53;;;;;;;10.82;1.70;;;;;;;;;;5093848;28;20404;-81
2022/09/10 11:19:57;;;;;;;10.20;1.95;;;;;;;;;;5092572;28;20032;-79
2022/09/10 11:23:20;;;;;;;6.55;1.90;;;;;;;;;;5093452;28;20032;-79
2022/09/10 11:26:26;;;;;;;11.40;1.95;;;;;;;;;;5093347;28;20036;-80
2022/09/10 11:29:40;;;;;;;10.18;1.80;;;;;;;;;;5092662;28;20043;-82
2022/09/10 11:32:47;;;;;;;6.72;1.73;;;;;;;;;;5081081;28;20043;-79
2022/09/10 11:36:12;;;;;;;5.85;1.70;;;;;;;;;;5093340;28;20036;-81
2022/09/10 11:39:31;;;;;;;10.15;2.10;;;;;;;;;;5093283;28;20040;-80
2022/09/10 11:42:40;;;;;;;5.95;1.70;;;;;;;;;;5092221;28;20503;-80
2022/09/10 11:46:05;;;;;;;5.75;1.30;;;;;;;;;;5093102;28;20471;-81
2022/09/10 11:49:34;;;;;;;8.10;1.60;;;;;;;;;;5093039;28;20032;-80
2022/09/10 11:52:39;;;;;;;5.60;1.50;;;;;;;;;;5092893;28;20040;-81
2022/09/10 11:55:56;;;;;;;11.20;2.08;;;;;;;;;;5092303;28;20369;-79
2022/09/10 11:59:07;;;;;;;8.90;2.25;;;;;;;;;;5093170;28;20036;-80
2022/09/10 12:02:23;;;;;;;5.72;1.67;;;;;;;;;;5092656;28;20040;-82
2022/09/10 12:05:47;;;;;;;5.13;1.25;;;;;;;;;;5092729;28;20476;-79
2022/09/10 12:09:03;;;;;;;4.07;1.20;;;;;;;;;;5092468;28;20167;-79
2022/09/10 12:12:20;;;;;;;4.90;1.52;;;;;;;;;;5091677;28;20036;-79
2022/09/10 12:15:24;;;;;;;10.20;1.60;;;;;;;;;;5091989;28;20040;-80
2022/09/10 12:18:31;;;;;;;6.88;1.40;;;;;;;;;;5092603;28;20504;-80
2022/09/10 12:21:38;;;;;;;7.97;1.40;;;;;;;;;;5092436;28;20036;-80
2022/09/10 12:24:51;;;;;;;6.78;1.38;;;;;;;;;;5092242;28;20036;-80
2022/09/10 12:27:57;;;;;;;8.63;2.42;;;;;;;;;;5092010;28;20051;-79
2022/09/10 12:31:02;;;;;;;14.55;2.05;;;;;;;;;;5092280;28;20040;-81
2022/09/10 12:34:08;;;;;;;7.00;1.60;;;;;;;;;;5092184;28;20040;-82
2022/09/10 12:37:33;;;;;;;10.93;1.90;;;;;;;;;;5092270;28;20028;-81
2022/09/10 12:40:37;;;;;;;5.13;1.40;;;;;;;;;;5092334;28;20040;-80
2022/09/10 12:43:52;;;;;;;7.50;1.48;;;;;;;;;;5092083;28;20039;-82
2022/09/10 12:47:17;;;;;;;9.00;1.77;;;;;;;;;;5092033;28;20032;-81
2022/09/10 12:50:29;;;;;;;5.32;1.60;;;;;;;;;;5091158;28;20036;-80
2022/09/10 12:53:52;;;;;;;5.60;1.60;;;;;;;;;;5092217;28;20032;-80
2022/09/10 12:57:02;;;;;;;9.48;2.00;;;;;;;;;;5091170;28;20036;-79
2022/09/10 13:00:17;;;;;;;8.18;2.00;;;;;;;;;;5091997;28;20044;-80
2022/09/10 13:03:23;;;;;;;6.43;1.48;;;;;;;;;;5091725;28;20040;-81
2022/09/10 13:06:42;;;;;;;7.63;1.40;;;;;;;;;;5091483;28;20052;-82
2022/09/10 13:09:56;;;;;;;6.05;1.25;;;;;;;;;;5091805;28;20040;-80
2022/09/10 13:13:03;;;;;;;16.45;5.93;;;;;;;;;;5091530;28;20044;-80
2022/09/10 13:16:11;;;;;;;4.03;1.35;;;;;;;;;;5091594;28;20045;-83
2022/09/10 13:19:16;;;;;;;6.45;2.00;;;;;;;;;;5090318;28;20036;-78
2022/09/10 13:22:30;;;;;;;4.50;1.33;;;;;;;;;;5088902;28;20051;-78
2022/09/10 13:25:35;;;;;;;5.55;1.60;;;;;;;;;;5091027;28;20036;-78
2022/09/10 13:28:41;;;;;;;11.38;2.20;;;;;;;;;;5090127;28;20048;-78
2022/09/10 13:31:47;;;;;;;4.60;1.27;;;;;;;;;;5091096;28;20039;-78
2022/09/10 13:34:57;;;;;;;4.05;1.33;;;;;;;;;;5090960;28;20044;-79
2022/09/10 13:38:15;;;;;;;4.78;1.52;;;;;;;;;;5091278;28;20048;-78
2022/09/10 13:41:20;;;;;;;4.45;1.40;;;;;;;;;;5090384;28;20048;-78
2022/09/10 13:44:36;;;;;;;5.57;1.45;;;;;;;;;;5090176;28;20036;-79
2022/09/10 13:48:05;;;;;;;7.63;1.63;;;;;;;;;;5090997;28;20496;-78
2022/09/10 13:51:18;;;;;;;7.97;1.60;;;;;;;;;;5091286;28;20036;-79
2022/09/10 13:54:22;;;;;;;5.13;1.77;;;;;;;;;;5091227;28;20043;-78
2022/09/10 13:57:33;;;;;;;9.75;1.90;;;;;;;;;;5091201;28;20040;-78
2022/09/10 14:00:52;;;;;;;7.55;1.80;;;;;;;;;;5090678;28;20032;-78
2022/09/10 14:03:57;;;;;;;7.35;1.70;;;;;;;;;;5090903;28;20032;-78
2022/09/10 14:07:13;;;;;;;6.07;1.30;;;;;;;;;;5089779;28;20048;-79
2022/09/10 14:10:17;;;;;;;9.55;1.75;;;;;;;;;;5090996;28;20032;-78
2022/09/10 14:13:27;;;;;;;9.55;1.70;;;;;;;;;;5090581;28;20039;-77
2022/09/10 14:16:36;;;;;;;7.53;1.95;;;;;;;;;;5089953;28;20036;-77
2022/09/10 14:19:50;;;;;;;10.10;2.13;;;;;;;;;;5089985;28;20040;-78
2022/09/10 14:22:59;;;;;;;7.18;1.73;;;;;;;;;;5089867;28;20047;-78
2022/09/10 14:26:16;;;;;;;4.78;1.73;;;;;;;;;;5090396;28;20040;-78
2022/09/10 14:29:23;;;;;;;6.38;1.73;;;;;;;;;;5090711;28;20040;-78
2022/09/10 14:32:27;;;;;;;4.30;1.52;;;;;;;;;;5089766;28;20479;-79
2022/09/10 14:35:38;;;;;;;4.28;1.77;;;;;;;;;;5089780;28;20040;-77
2022/09/10 14:38:44;;;;;;;10.73;2.50;;;;;;;;;;5090664;28;20036;-77
2022/09/10 14:41:49;;;;;;;14.75;1.98;;;;;;;;;;5090524;28;20040;-77
2022/09/10 14:44:53;;;;;;;5.07;1.88;;;;;;;;;;5090445;28;20032;-79
2022/09/10 14:47:57;;;;;;;4.38;1.55;;;;;;;;;;5090466;28;20044;-78
2022/09/10 14:51:13;;;;;;;7.53;1.90;;;;;;;;;;5090352;28;20368;-77
2022/09/10 14:54:17;;;;;;;7.70;1.40;;;;;;;;;;5091160;28;20032;-78
2022/09/10 14:57:22;;;;;;;9.27;1.80;;;;;;;;;;5093877;28;20574;-77
2022/09/10 15:00:27;;;;;;;9.90;2.08;;;;;;;;;;5094019;28;20039;-78
2022/09/10 15:03:31;;;;;;;14.43;2.80;;;;;;;;;;5093683;28;20495;-77
2022/09/10 15:06:35;;;;;;;6.50;1.92;;;;;;;;;;5093711;28;20051;-77
2022/09/10 15:09:40;;;;;;;6.32;1.70;;;;;;;;;;5093664;28;20495;-78
2022/09/10 15:12:48;;;;;;;9.13;2.20;;;;;;;;;;5093408;28;20365;-77
2022/09/10 15:15:53;;;;;;;17.45;2.60;;;;;;;;;;5080993;28;20040;-77
2022/09/10 15:18:57;;;;;;;11.20;3.05;;;;;;;;;;5093822;28;20040;-78
2022/09/10 15:22:01;;;;;;;7.88;1.90;;;;;;;;;;5093218;28;20377;-77
2022/09/10 15:25:06;;;;;;;5.43;1.67;;;;;;;;;;5093678;28;20044;-77
2022/09/10 15:28:11;;;;;;;9.57;1.75;;;;;;;;;;5093168;28;20052;-78
2022/09/10 15:31:17;;;;;;;10.35;2.13;;;;;;;;;;5093044;28;20035;-77
2022/09/10 15:34:21;;;;;;;4.60;1.90;;;;;;;;;;5093300;28;20044;-79
2022/09/10 15:37:25;;;;;;;3.88;1.80;;;;;;;;;;5093028;28;20032;-78
2022/09/10 15:40:30;;;;;;;6.32;1.38;;;;;;;;;;5092251;28;20476;-78
2022/09/10 15:43:36;;;;;;;6.22;2.15;;;;;;;;;;5093156;28;20036;-77
2022/09/10 15:46:44;;;;;;;5.03;1.73;;;;;;;;;;5092414;28;20048;-77
2022/09/10 15:49:48;;;;;;;9.60;1.60;;;;;;;;;;5092772;28;20044;-78
2022/09/10 15:52:52;;;;;;;7.22;1.70;;;;;;;;;;5092649;28;20032;-77
2022/09/10 15:55:58;;;;;;;8.32;1.75;;;;;;;;;;5092523;28;20028;-77
2022/09/10 15:59:04;;;;;;;11.02;2.20;;;;;;;;;;5092166;28;20040;-78
2022/09/10 16:02:12;;;;;;;6.45;1.90;;;;;;;;;;5092368;28;20036;-78
2022/09/10 16:05:16;;;;;;;9.10;2.05;;;;;;;;;;5091767;28;20036;-77
2022/09/10 16:08:20;;;;;;;7.28;2.05;;;;;;;;;;5091718;28;20044;-78
2022/09/10 16:11:25;;;;;;;5.25;1.92;;;;;;;;;;5092395;28;20384;-78
2022/09/10 16:14:30;;;;;;;8.35;2.00;;;;;;;;;;5092110;28;20040;-78
2022/09/10 16:17:34;;;;;;;7.43;1.77;;;;;;;;;;5092298;28;20040;-78
2022/09/10 16:20:39;;;;;;;7.18;1.77;;;;;;;;;;5092381;28;20032;-78
2022/09/10 16:23:44;;;;;;;8.75;1.92;;;;;;;;;;5092113;28;20032;-78
2022/09/10 16:26:50;;;;;;;6.15;1.83;;;;;;;;;;5091694;28;20044;-78
2022/09/10 16:29:54;;;;;;;5.25;2.08;;;;;;;;;;5090781;28;20080;-78
2022/09/10 16:32:59;;;;;;;6.65;1.58;;;;;;;;;;5090227;28;20036;-77
2022/09/10 16:36:04;;;;;;;16.02;2.85;;;;;;;;;;5090602;28;20040;-77
2022/09/10 16:39:14;;;;;;;7.25;2.03;;;;;;;;;;5092305;28;20373;-77
2022/09/10 16:42:18;;;;;;;10.90;2.38;;;;;;;;;;5091099;28;20126;-77
2022/09/10 16:45:23;;;;;;;8.80;2.35;;;;;;;;;;5091565;28;20044;-75
2022/09/10 16:48:28;;;;;;;9.07;2.20;;;;;;;;;;5091697;28;20048;-78
2022/09/10 16:51:33;;;;;;;7.75;2.28;;;;;;;;;;5091767;28;20036;-80
2022/09/10 16:54:38;;;;;;;11.98;3.40;;;;;;;;;;5091596;28;20040;-78
2022/09/10 16:57:43;;;;;;;15.18;2.83;;;;;;;;;;5091802;28;20035;-78
2022/09/10 17:00:48;;;;;;;12.40;3.42;;;;;;;;;;5091491;28;20032;-77
2022/09/10 17:03:52;;;;;;;16.35;4.80;;;;;;;;;;5090345;28;20037;-78
2022/09/10 17:06:57;;;;;;;15.93;6.75;;;;;;;;;;5091368;28;20051;-79
2022/09/10 17:10:02;;;;;;;12.70;4.65;;;;;;;;;;5091476;28;20491;-78
2022/09/10 17:13:07;;;;;;;10.43;3.65;;;;;;;;;;5091484;28;20115;-79
2022/09/10 17:16:20;;;;;;;15.98;2.42;;;;;;;;;;5091078;28;20143;-80
2022/09/10 17:19:26;;;;;;;14.88;3.15;;;;;;;;;;5091515;28;20066;-80
2022/09/10 17:22:30;;;;;;;8.65;2.15;;;;;;;;;;5091331;28;20039;-79
2022/09/10 17:25:35;;;;;;;8.60;3.03;;;;;;;;;;5091642;28;20044;-81
2022/09/10 17:28:39;;;;;;;12.63;2.92;;;;;;;;;;5091132;28;20048;-80
2022/09/10 17:31:45;;;;;;;9.90;2.40;;;;;;;;;;5090973;28;20095;-77
2022/09/10 17:34:50;;;;;;;10.35;3.08;;;;;;;;;;5090889;28;20048;-80
2022/09/10 17:37:54;;;;;;;14.18;3.20;;;;;;;;;;5091082;28;20047;-80
2022/09/10 17:41:03;;;;;;;10.00;2.35;;;;;;;;;;5090753;28;20043;-82
2022/09/10 17:44:07;;;;;;;12.43;2.53;;;;;;;;;;5090993;28;20047;-81
2022/09/10 17:47:11;;;;;;;14.23;2.28;;;;;;;;;;5089691;28;20052;-77
2022/09/10 17:50:15;;;;;;;9.98;2.80;;;;;;;;;;5089877;28;20036;-77
2022/09/10 17:53:20;;;;;;;13.50;2.45;;;;;;;;;;5091081;28;20036;-79
2022/09/10 17:56:25;;;;;;;7.32;1.85;;;;;;;;;;5090537;28;20039;-78
2022/09/10 17:59:31;;;;;;;11.50;2.88;;;;;;;;;;5090404;28;20092;-79
2022/09/10 18:02:35;;;;;;;8.23;2.75;;;;;;;;;;5090562;28;20044;-77
2022/09/10 18:05:39;;;;;;;9.52;2.60;;;;;;;;;;5090871;28;20040;-78
2022/09/10 18:08:44;;;;;;;10.93;3.08;;;;;;;;;;5089601;28;20044;-77
2022/09/10 18:11:48;;;;;;;14.38;3.08;;;;;;;;;;5090541;28;20036;-77
2022/09/10 18:14:53;;;;;;;14.45;3.42;;;;;;;;;;5090418;28;20526;-77
2022/09/10 18:17:58;;;;;;;8.63;3.25;;;;;;;;;;5090719;28;20328;-76
2022/09/10 18:21:11;;;;;;;13.70;3.40;;;;;;;;;;5090453;28;20035;-77
2022/09/10 18:24:23;;;;;;;13.40;4.13;;;;;;;;;;5089629;28;20039;-77
2022/09/10 18:27:27;;;;;;;14.40;4.07;;;;;;;;;;5090209;28;20210;-77
2022/09/10 18:30:31;;;;;;;10.68;4.05;;;;;;;;;;5094310;28;20391;-77
2022/09/10 18:33:37;;;;;;;19.92;3.70;;;;;;;;;;5093984;28;20051;-77
2022/09/10 18:36:42;;;;;;;22.95;4.57;;;;;;;;;;5093861;28;20229;-77
2022/09/10 18:39:47;;;;;;;20.13;4.13;;;;;;;;;;5094692;28;20055;-77